createdAt,value
2023-01-23T00:00:19.205Z,93053.72
2023-01-23T00:05:24.016Z,93073.91
2023-01-23T00:10:27.140Z,93083.22
2023-01-23T00:15:30.345Z,93098.69
2023-01-23T00:20:33.570Z,93096.34
2023-01-23T00:25:37.300Z,93115.19
2023-01-23T00:30:40.914Z,93109.63
2023-01-23T00:35:44.498Z,93126.59
2023-01-23T00:40:48.571Z,93135.44
2023-01-23T00:45:52.833Z,93148.25
2023-01-23T00:50:56.151Z,93128.94
2023-01-23T00:56:00.135Z,93131.88
2023-01-23T01:01:03.743Z,93153.72
2023-01-23T01:06:09.246Z,93159.97
2023-01-23T01:11:12.453Z,93184.22
2023-01-23T01:16:17.718Z,93195.78
2023-01-23T01:21:20.999Z,93196.69
2023-01-23T01:26:26.480Z,93199.28
2023-01-23T01:31:29.811Z,93184.66
2023-01-23T01:36:33.079Z,93206.44
2023-01-23T01:41:37.129Z,93217.53
2023-01-23T01:46:42.534Z,93214.94
2023-01-23T01:51:45.914Z,93228.31
2023-01-23T01:56:55.434Z,93221.44
2023-01-23T02:02:10.019Z,93208.81
2023-01-23T02:07:25.079Z,93224.25
2023-01-23T02:12:29.964Z,93219.06
2023-01-23T02:17:34.610Z,93223.31
2023-01-23T02:22:51.397Z,93224.25
2023-01-23T02:27:54.597Z,93217.47
2023-01-23T02:33:27.417Z,93220.16
2023-01-23T02:38:35.959Z,93219.69
2023-01-23T02:43:39.980Z,93226.78
2023-01-23T02:48:45.129Z,93224.50
2023-01-23T02:53:49.415Z,93233.31
2023-01-23T02:59:13.799Z,93218.91
2023-01-23T03:04:17.381Z,93214.25
2023-01-23T03:09:20.696Z,93217.38
2023-01-23T03:14:25.903Z,93212.78
2023-01-23T03:19:31.719Z,93224.19
2023-01-23T03:24:35.805Z,93227.66
2023-01-23T03:29:57.597Z,93211.66
2023-01-23T03:35:00.974Z,93222.47
2023-01-23T03:40:22.905Z,93207.53
2023-01-23T03:45:26.076Z,93228.31
2023-01-23T03:50:29.779Z,93213.25
2023-01-23T03:55:33.548Z,93233.69
2023-01-23T04:00:37.744Z,93231.09
2023-01-23T04:05:42.961Z,93243.25
2023-01-23T04:10:46.664Z,93250.69
2023-01-23T04:15:52.960Z,93261.78
2023-01-23T04:20:56.975Z,93262.50
2023-01-23T04:26:00.980Z,93262.66
2023-01-23T04:31:05.631Z,93274.06
2023-01-23T04:36:11.794Z,93288.56
2023-01-23T04:41:21.415Z,93285.63
2023-01-23T04:46:26.846Z,93289.25
2023-01-23T04:51:35.098Z,93297.88
2023-01-23T04:56:38.605Z,93315.22
2023-01-23T05:01:46.511Z,93306.91
2023-01-23T05:06:52.313Z,93313.88
2023-01-23T05:11:56.315Z,93322.47
2023-01-23T05:17:01.530Z,93309.38
2023-01-23T05:22:08.743Z,93331.19
2023-01-23T05:27:13.343Z,93328.91
2023-01-23T05:32:19.615Z,93308.75
2023-01-23T05:37:44.017Z,93341.59
2023-01-23T05:42:48.168Z,93343.06
2023-01-23T05:48:20.163Z,93339.69
2023-01-23T05:53:25.056Z,93345.25
2023-01-23T05:58:28.670Z,93357.00
2023-01-23T06:03:53.128Z,93354.03
2023-01-23T06:09:14.110Z,93346.63
2023-01-23T06:14:18.534Z,93353.88
2023-01-23T06:19:21.702Z,93352.53
2023-01-23T06:24:25.366Z,93362.06
2023-01-23T06:29:28.880Z,93367.59
2023-01-23T06:34:32.246Z,93375.22
2023-01-23T06:39:39.072Z,93386.56
2023-01-23T06:44:43.723Z,93383.19
2023-01-23T06:49:49.293Z,93404.19
2023-01-23T06:54:54.311Z,93399.97
2023-01-23T06:59:57.704Z,93402.25
2023-01-23T07:05:00.759Z,93415.31
2023-01-23T07:10:04.550Z,93426.38
2023-01-23T07:15:09.176Z,93409.50
2023-01-23T07:20:15.877Z,93404.41
2023-01-23T07:25:28.805Z,93413.59
2023-01-23T07:30:33.595Z,93407.91
2023-01-23T07:35:39.409Z,93414.91
2023-01-23T07:40:44.654Z,93421.03
2023-01-23T07:45:47.793Z,93423.28
2023-01-23T07:50:52.110Z,93430.06
2023-01-23T07:55:55.245Z,93433.69
2023-01-23T08:00:58.713Z,93442.72
2023-01-23T08:06:02.961Z,93445.91
2023-01-23T08:11:07.995Z,93469.53
2023-01-23T08:16:13.659Z,93472.13
2023-01-23T08:21:17.460Z,93469.81
2023-01-23T08:26:21.388Z,93463.41
2023-01-23T08:31:24.982Z,93492.06
2023-01-23T08:36:29.082Z,93503.06
2023-01-23T08:41:34.774Z,93492.78
2023-01-23T08:46:37.937Z,93487.59
2023-01-23T08:51:40.967Z,93481.34
2023-01-23T08:56:44.011Z,93507.38
2023-01-23T09:01:48.589Z,93495.41
2023-01-23T09:06:52.120Z,93503.28
2023-01-23T09:11:55.985Z,93508.28
2023-01-23T09:16:59.517Z,93517.22
2023-01-23T09:22:03.853Z,93511.38
2023-01-23T09:27:08.193Z,93506.13
2023-01-23T09:32:11.722Z,93525.03
2023-01-23T09:37:17.087Z,93534.97
2023-01-23T09:42:27.403Z,93536.16
2023-01-23T09:47:40.373Z,93539.75
2023-01-23T09:52:48.898Z,93536.97
2023-01-23T09:58:03.685Z,93528.81
2023-01-23T10:03:15.726Z,93535.56
2023-01-23T10:08:24.878Z,93542.88
2023-01-23T10:13:40.129Z,93531.47
2023-01-23T10:19:15.818Z,93528.31
2023-01-23T10:24:28.416Z,93528.97
2023-01-23T10:29:38.964Z,93536.28
2023-01-23T10:34:56.551Z,93528.16
2023-01-23T10:40:08.243Z,93528.94
2023-01-23T10:45:19.854Z,93515.16
2023-01-23T10:50:37.839Z,93523.66
2023-01-23T10:55:45.853Z,93526.72
2023-01-23T11:00:49.754Z,93534.66
2023-01-23T11:06:17.632Z,93537.94
2023-01-23T11:11:25.169Z,93550.69
2023-01-23T11:16:28.337Z,93546.81
2023-01-23T11:21:39.403Z,93540.41
2023-01-23T11:26:42.941Z,93546.94
2023-01-23T11:31:46.866Z,93557.91
2023-01-23T11:37:14.435Z,93543.13
2023-01-23T11:42:18.843Z,93553.00
2023-01-23T11:47:31.210Z,93550.66
2023-01-23T11:52:34.979Z,93557.50
2023-01-23T11:57:44.209Z,93561.41
2023-01-23T12:03:25.243Z,93562.81
2023-01-23T12:08:53.270Z,93562.44
2023-01-23T12:14:04.603Z,93580.63
2023-01-23T12:19:07.624Z,93579.81
2023-01-23T12:24:39.717Z,93583.84
2023-01-23T12:30:13.399Z,93574.19
2023-01-23T12:35:45.684Z,93594.00
2023-01-23T12:40:54.128Z,93582.63
2023-01-23T12:46:11.650Z,93573.19
2023-01-23T12:51:34.478Z,93571.47
2023-01-23T12:56:42.149Z,93573.09
2023-01-23T13:02:13.682Z,93570.78
2023-01-23T13:07:42.535Z,93569.34
2023-01-23T13:12:46.017Z,93574.56
2023-01-23T13:17:49.495Z,93571.03
2023-01-23T13:22:52.694Z,93567.66
2023-01-23T13:28:02.393Z,93570.75
2023-01-23T13:33:06.726Z,93584.16
2023-01-23T13:38:21.726Z,93596.72
2023-01-23T13:43:55.092Z,93586.41
2023-01-23T14:21:41.192Z,93618.34
2023-01-23T14:26:51.290Z,93625.28
2023-01-23T14:31:56.200Z,93624.31
2023-01-23T14:37:12.334Z,93635.63
2023-01-23T14:42:28.633Z,93644.97
2023-01-23T14:47:34.662Z,93656.56
2023-01-23T14:52:38.854Z,93658.03
2023-01-23T14:57:43.287Z,93662.75
2023-01-23T15:02:51.341Z,93658.28
2023-01-23T15:08:03.831Z,93678.41
2023-01-23T15:13:10.434Z,93672.13
2023-01-23T15:18:24.369Z,93656.72
2023-01-23T15:23:34.093Z,93686.63
2023-01-23T15:28:56.761Z,93685.91
2023-01-23T15:34:14.951Z,93693.31
2023-01-23T15:39:24.204Z,93708.03
2023-01-23T15:44:30.040Z,93704.91
2023-01-23T15:49:35.740Z,93691.94
2023-01-23T15:54:39.367Z,93719.19
2023-01-23T15:59:42.990Z,93721.38
2023-01-23T16:04:46.968Z,93734.34
2023-01-23T16:09:51.187Z,93722.69
2023-01-23T16:14:54.570Z,93743.16
2023-01-23T16:19:58.058Z,93752.09
2023-01-23T16:25:01.705Z,93749.66
2023-01-23T16:30:06.269Z,93744.47
2023-01-23T16:35:12.595Z,93750.22
2023-01-23T16:40:23.584Z,93766.66
2023-01-23T16:45:31.705Z,93771.78
2023-01-23T16:50:39.464Z,93758.31
2023-01-23T16:55:45.156Z,93767.13
2023-01-23T17:00:49.788Z,93791.53
2023-01-23T17:05:52.986Z,93807.88
2023-01-23T17:11:00.935Z,93813.09
2023-01-23T17:16:15.452Z,93812.31
2023-01-23T17:21:34.092Z,93820.97
2023-01-23T17:26:37.152Z,93823.22
2023-01-23T17:31:41.881Z,93820.88
2023-01-23T17:36:45.231Z,93837.28
2023-01-23T17:41:49.018Z,93842.25
2023-01-23T17:46:54.816Z,93851.03
2023-01-23T17:52:01.185Z,93851.84
2023-01-23T17:57:05.254Z,93859.31
2023-01-23T18:02:27.989Z,93867.16
2023-01-23T18:07:48.514Z,93858.09
2023-01-23T18:13:17.694Z,93870.03
2023-01-23T18:18:31.045Z,93875.31
2023-01-23T18:23:37.244Z,93859.25
2023-01-23T18:29:20.613Z,93866.91
2023-01-23T18:34:42.219Z,93866.91
2023-01-23T18:40:11.015Z,93871.56
2023-01-23T18:45:26.419Z,93863.72
2023-01-23T18:50:30.759Z,93865.38
2023-01-23T18:55:46.646Z,93875.72
2023-01-23T19:01:10.649Z,93879.97
2023-01-23T19:06:20.911Z,93887.28
2023-01-23T19:11:51.113Z,93887.63
2023-01-23T19:17:09.523Z,93888.47
2023-01-23T19:22:13.265Z,93882.25
2023-01-23T19:27:24.754Z,93896.69
2023-01-23T19:32:28.557Z,93907.47
2023-01-23T19:37:32.041Z,93906.09
2023-01-23T19:42:52.405Z,93911.41
2023-01-23T19:48:01.751Z,93904.88
2023-01-23T19:53:07.964Z,93903.75
2023-01-23T19:58:11.695Z,93919.72
2023-01-23T20:03:15.425Z,93912.09
2023-01-23T20:08:18.551Z,93923.47
2023-01-23T20:13:22.302Z,93925.22
2023-01-23T20:18:25.536Z,93927.91
2023-01-23T20:23:29.552Z,93929.94
2023-01-23T20:28:33.060Z,93928.13
2023-01-23T20:33:36.681Z,93943.75
2023-01-23T20:38:41.116Z,93958.53
2023-01-23T20:43:44.647Z,93955.47
2023-01-23T20:48:48.167Z,93949.81
2023-01-23T20:53:51.214Z,93966.50
2023-01-23T20:59:14.356Z,93967.75
2023-01-23T21:04:18.537Z,93967.28
2023-01-23T21:09:22.018Z,93989.13
2023-01-23T21:14:24.927Z,93984.78
2023-01-23T21:19:28.424Z,93972.47
2023-01-23T21:24:34.569Z,93988.22
2023-01-23T21:29:38.167Z,93991.13
2023-01-23T21:34:41.251Z,93988.22
2023-01-23T21:39:44.337Z,93994.53
2023-01-23T21:44:48.454Z,94006.28
2023-01-23T21:49:52.068Z,93990.34
2023-01-23T21:54:56.165Z,94015.84
2023-01-23T22:00:18.514Z,94019.44
2023-01-23T22:05:21.848Z,94033.56
2023-01-23T22:10:25.345Z,94033.84
2023-01-23T22:15:28.513Z,94032.53
2023-01-23T22:20:31.505Z,94031.31
2023-01-23T22:25:34.514Z,94021.97
2023-01-23T22:30:37.511Z,94013.44
2023-01-23T22:35:41.478Z,94014.63
2023-01-23T22:40:44.458Z,94000.88
2023-01-23T22:45:47.396Z,94002.31
2023-01-23T22:50:50.342Z,94007.56
2023-01-23T22:55:53.367Z,93999.47
2023-01-23T23:00:56.411Z,93988.03
2023-01-23T23:06:02.260Z,94016.41
2023-01-23T23:11:10.730Z,94013.06
2023-01-23T23:16:22.243Z,94018.66
2023-01-23T23:21:31.984Z,94014.72
2023-01-23T23:26:35.836Z,94024.06
2023-01-23T23:31:38.992Z,94017.06
2023-01-23T23:36:42.487Z,94021.19
2023-01-23T23:41:45.499Z,93994.06
2023-01-23T23:46:48.466Z,94016.75
2023-01-23T23:51:51.540Z,94006.44
2023-01-23T23:56:54.567Z,94020.72
